Time;durP1;ratioP1;P1;durP2;ratioP2;P2;SDS_P1;SDS_P2;PMS_P1;PMS_P2;Temp;Humidity;BMP_temperature;BMP_pressure;BME280_temperature;BME280_humidity;BME280_pressure;Samples;Min_cycle;Max_cycle;Signal;HPM_P1;HPM_P2
2022/09/09 00:01:09;;;;;;;3.33;1.60;;;14.10;99.90;;;;;;5073829;28;20202;-69
2022/09/09 00:03:46;;;;;;;3.95;1.70;;;14.10;99.90;;;;;;5072499;28;20195;-67
2022/09/09 00:06:22;;;;;;;4.38;1.80;;;14.10;99.90;;;;;;5073308;28;20697;-68
2022/09/09 00:09:01;;;;;;;3.58;1.98;;;14.10;99.90;;;;;;5074791;28;20562;-70
2022/09/09 00:11:41;;;;;;;3.03;1.63;;;14.00;99.90;;;;;;5072481;28;20568;-69
2022/09/09 00:14:19;;;;;;;4.35;1.67;;;14.00;99.90;;;;;;5078348;28;20668;-68
2022/09/09 00:16:55;;;;;;;4.88;1.60;;;14.00;99.90;;;;;;5094599;28;20591;-68
2022/09/09 00:19:27;;;;;;;2.33;1.35;;;13.90;99.90;;;;;;5085447;28;20183;-68
2022/09/09 00:22:06;;;;;;;2.15;1.50;;;13.90;99.90;;;;;;5078333;28;20217;-68
2022/09/09 00:24:42;;;;;;;2.72;1.48;;;13.90;99.90;;;;;;5093348;28;20193;-67
2022/09/09 00:27:21;;;;;;;2.05;1.13;;;13.90;99.90;;;;;;5093341;28;20641;-67
2022/09/09 00:29:55;;;;;;;3.15;1.20;;;13.80;99.90;;;;;;5092197;28;20186;-70
2022/09/09 00:32:30;;;;;;;2.55;1.42;;;13.80;99.90;;;;;;5082273;28;20187;-70
2022/09/09 00:35:05;;;;;;;3.22;1.67;;;13.80;99.90;;;;;;5071835;28;20212;-70
2022/09/09 00:37:35;;;;;;;3.15;1.67;;;13.80;99.90;;;;;;5071923;28;20223;-71
2022/09/09 00:40:16;;;;;;;3.10;1.25;;;13.80;99.90;;;;;;5073653;28;20661;-69
2022/09/09 00:42:45;;;;;;;2.15;1.40;;;13.70;99.90;;;;;;5071683;28;20206;-70
2022/09/09 00:45:31;;;;;;;4.50;1.45;;;13.70;99.90;;;;;;5080734;28;20198;-70
2022/09/09 00:48:08;;;;;;;5.57;1.67;;;13.70;99.90;;;;;;5078982;28;20222;-70
2022/09/09 00:50:50;;;;;;;3.63;1.50;;;13.60;99.90;;;;;;5072515;28;20656;-70
2022/09/09 00:53:34;;;;;;;3.20;1.60;;;13.60;99.90;;;;;;5087458;28;20657;-70
2022/09/09 00:56:12;;;;;;;3.83;1.65;;;13.60;99.90;;;;;;5072270;28;20203;-70
2022/09/09 00:58:43;;;;;;;3.00;1.67;;;13.60;99.90;;;;;;5073152;28;20222;-70
2022/09/09 01:01:13;;;;;;;4.15;2.00;;;13.60;99.90;;;;;;5072796;28;20183;-71
2022/09/09 01:03:47;;;;;;;3.00;1.70;;;13.60;99.90;;;;;;5071931;28;20199;-70
2022/09/09 01:06:19;;;;;;;3.42;1.80;;;13.60;99.90;;;;;;5071600;28;20207;-70
2022/09/09 01:09:06;;;;;;;3.25;1.90;;;13.60;99.90;;;;;;5069752;28;20611;-70
2022/09/09 01:11:48;;;;;;;2.83;1.80;;;13.60;99.90;;;;;;5071806;28;20200;-70
2022/09/09 01:14:28;;;;;;;2.05;1.55;;;13.50;99.90;;;;;;5054887;28;20195;-71
2022/09/09 01:17:00;;;;;;;4.18;1.80;;;13.50;99.90;;;;;;5071715;28;20183;-71
2022/09/09 01:19:46;;;;;;;2.45;1.60;;;13.40;99.90;;;;;;5071522;28;20188;-70
2022/09/09 01:22:27;;;;;;;4.63;2.00;;;13.40;99.90;;;;;;5069795;28;20194;-70
2022/09/09 01:25:19;;;;;;;3.55;1.52;;;13.40;99.90;;;;;;5075736;28;20191;-70
2022/09/09 01:28:03;;;;;;;3.72;1.50;;;13.30;99.90;;;;;;5080688;28;20587;-69
2022/09/09 01:30:34;;;;;;;2.13;1.60;;;13.30;99.90;;;;;;5082370;28;20638;-71
2022/09/09 01:33:04;;;;;;;4.05;2.03;;;13.30;99.90;;;;;;5086173;28;20206;-70
2022/09/09 01:35:44;;;;;;;2.90;2.58;;;13.30;99.90;;;;;;5072477;28;20203;-70
2022/09/09 01:38:13;;;;;;;6.50;3.17;;;13.30;99.90;;;;;;5071817;28;20223;-69
2022/09/09 01:40:43;;;;;;;4.50;2.20;;;13.30;99.90;;;;;;5077750;28;20549;-69
2022/09/09 01:43:14;;;;;;;5.97;2.03;;;13.30;99.90;;;;;;5079543;28;20199;-69
2022/09/09 01:45:45;;;;;;;2.38;1.70;;;13.30;99.90;;;;;;5079110;28;20623;-69
2022/09/09 01:48:14;;;;;;;3.05;1.70;;;13.30;99.90;;;;;;5076740;28;20222;-68
2022/09/09 01:50:52;;;;;;;3.42;1.75;;;13.30;99.90;;;;;;5091021;28;20210;-68
2022/09/09 01:53:22;;;;;;;2.58;1.42;;;13.30;99.90;;;;;;5087270;28;20225;-69
2022/09/09 01:56:02;;;;;;;3.67;1.70;;;13.30;99.90;;;;;;5090839;28;20210;-67
2022/09/09 01:58:46;;;;;;;3.58;1.60;;;13.30;99.90;;;;;;5094670;28;20218;-69
2022/09/09 02:01:24;;;;;;;4.63;1.45;;;13.30;99.90;;;;;;5094415;28;20206;-67
2022/09/09 02:03:56;;;;;;;1.98;1.50;;;13.30;99.90;;;;;;5089076;28;20215;-68
2022/09/09 02:06:31;;;;;;;2.60;1.77;;;13.20;99.90;;;;;;5087493;28;20230;-68
2022/09/09 02:09:11;;;;;;;2.70;1.80;;;13.20;99.90;;;;;;5095894;28;20241;-68
2022/09/09 02:11:45;;;;;;;2.83;1.70;;;13.20;99.90;;;;;;5094221;28;20210;-68
2022/09/09 02:14:28;;;;;;;4.10;1.80;;;13.30;99.90;;;;;;5094083;28;20213;-68
2022/09/09 02:17:00;;;;;;;3.42;1.48;;;13.30;99.90;;;;;;5093914;28;20206;-69
2022/09/09 02:19:46;;;;;;;3.53;1.98;;;13.30;99.90;;;;;;5094317;28;20194;-67
2022/09/09 02:22:28;;;;;;;2.45;1.60;;;13.30;99.90;;;;;;5075403;28;20622;-67
2022/09/09 02:25:01;;;;;;;4.03;1.80;;;13.30;99.90;;;;;;5092714;28;20691;-68
2022/09/09 02:27:31;;;;;;;4.70;2.15;;;13.30;99.90;;;;;;5093803;28;20234;-68
2022/09/09 02:30:03;;;;;;;3.92;1.70;;;13.20;99.90;;;;;;5095286;28;20216;-68
2022/09/09 02:32:47;;;;;;;2.63;1.85;;;13.20;99.90;;;;;;5093840;28;20201;-68
2022/09/09 02:35:21;;;;;;;3.08;1.65;;;13.20;99.90;;;;;;5094327;28;20205;-69
2022/09/09 02:37:52;;;;;;;2.72;1.60;;;13.20;99.90;;;;;;5088782;28;20244;-69
2022/09/09 02:40:21;;;;;;;2.70;1.60;;;13.20;99.90;;;;;;5073431;28;20650;-69
2022/09/09 02:42:59;;;;;;;3.17;1.75;;;13.20;99.90;;;;;;5073582;28;20203;-67
2022/09/09 02:45:39;;;;;;;3.60;1.60;;;13.20;99.90;;;;;;5073670;28;20234;-68
2022/09/09 02:48:15;;;;;;;4.88;1.88;;;13.20;99.90;;;;;;5073710;28;20238;-68
2022/09/09 02:50:55;;;;;;;2.72;1.58;;;13.20;99.90;;;;;;5073216;28;20210;-68
2022/09/09 02:53:39;;;;;;;3.25;1.60;;;13.20;99.90;;;;;;5073222;28;20203;-69
2022/09/09 02:56:13;;;;;;;3.88;1.70;;;13.20;99.90;;;;;;5088484;28;20202;-68
2022/09/09 02:58:46;;;;;;;2.78;1.60;;;13.20;99.90;;;;;;5094737;28;20226;-68
2022/09/09 03:01:17;;;;;;;3.58;1.88;;;13.10;99.90;;;;;;5093563;28;20209;-67
2022/09/09 03:03:46;;;;;;;2.78;1.63;;;13.20;99.90;;;;;;5093773;28;20186;-67
2022/09/09 03:06:17;;;;;;;5.22;1.65;;;13.20;99.90;;;;;;5093511;28;20202;-68
2022/09/09 03:08:52;;;;;;;3.17;1.40;;;13.30;99.90;;;;;;5092961;28;20243;-68
2022/09/09 03:11:25;;;;;;;2.95;1.90;;;13.20;99.90;;;;;;5092416;28;20193;-67
2022/09/09 03:13:55;;;;;;;3.80;1.70;;;13.20;99.90;;;;;;5093134;28;20202;-68
2022/09/09 03:16:27;;;;;;;3.00;2.05;;;13.30;99.90;;;;;;5092886;28;20198;-69
2022/09/09 03:18:56;;;;;;;2.05;1.77;;;13.20;99.90;;;;;;5093209;28;20226;-68
2022/09/09 03:21:24;;;;;;;3.88;1.90;;;13.20;99.90;;;;;;5094498;28;20195;-68
2022/09/09 03:23:53;;;;;;;3.13;1.80;;;13.20;99.90;;;;;;5094480;28;20190;-68
2022/09/09 03:26:22;;;;;;;4.20;1.50;;;13.30;99.90;;;;;;5093134;28;20187;-68
2022/09/09 03:28:52;;;;;;;5.28;1.80;;;13.30;99.90;;;;;;5087775;28;20235;-67
2022/09/09 03:31:23;;;;;;;4.47;1.60;;;13.30;99.90;;;;;;5073015;28;20179;-68
2022/09/09 03:33:54;;;;;;;5.28;1.95;;;13.20;99.90;;;;;;5072882;28;20191;-68
2022/09/09 03:36:22;;;;;;;3.53;1.73;;;13.30;99.90;;;;;;5072855;28;20669;-68
2022/09/09 03:38:51;;;;;;;3.63;1.77;;;13.30;99.90;;;;;;5072579;28;20222;-67
2022/09/09 03:41:20;;;;;;;3.03;1.90;;;13.30;99.90;;;;;;5073804;28;20584;-67
2022/09/09 03:43:49;;;;;;;3.35;1.80;;;13.30;99.90;;;;;;5072483;28;20305;-67
2022/09/09 03:46:18;;;;;;;4.72;2.10;;;13.30;99.90;;;;;;5074109;28;20695;-67
2022/09/09 03:48:47;;;;;;;3.20;1.95;;;13.30;99.90;;;;;;5072553;28;20591;-67
2022/09/09 03:51:18;;;;;;;3.38;1.80;;;13.40;99.90;;;;;;5072059;28;20209;-67
2022/09/09 03:53:47;;;;;;;3.45;1.80;;;13.30;99.90;;;;;;5072451;28;20191;-68
2022/09/09 03:56:17;;;;;;;3.65;1.95;;;13.30;99.90;;;;;;5072532;28;20195;-67
2022/09/09 03:58:46;;;;;;;3.33;1.95;;;13.30;99.90;;;;;;5072119;28;20230;-67
2022/09/09 04:01:17;;;;;;;4.00;1.80;;;13.20;99.90;;;;;;5072447;28;20646;-67
2022/09/09 04:03:47;;;;;;;2.38;1.70;;;13.20;99.90;;;;;;5072690;28;20222;-69
2022/09/09 04:06:21;;;;;;;5.38;3.15;;;13.20;99.90;;;;;;5071779;28;20210;-67
2022/09/09 04:08:50;;;;;;;5.30;2.80;;;13.20;99.90;;;;;;5072065;28;20564;-67
2022/09/09 04:11:20;;;;;;;6.40;3.40;;;13.20;99.90;;;;;;5072234;28;20190;-67
2022/09/09 04:13:51;;;;;;;13.85;8.13;;;13.20;99.90;;;;;;5072244;28;20187;-67
2022/09/09 04:16:20;;;;;;;16.02;9.15;;;13.20;99.90;;;;;;5072308;28;20198;-69
2022/09/09 04:18:49;;;;;;;10.88;7.38;;;13.20;99.90;;;;;;5071489;28;20234;-69
2022/09/09 04:21:21;;;;;;;6.30;4.57;;;13.20;99.90;;;;;;5072561;28;20210;-68
2022/09/09 04:23:51;;;;;;;9.00;5.70;;;13.10;99.90;;;;;;5071932;28;20567;-68
2022/09/09 04:26:20;;;;;;;5.60;3.40;;;13.00;99.90;;;;;;5072075;28;20301;-69
2022/09/09 04:28:49;;;;;;;5.03;2.40;;;13.00;99.90;;;;;;5072012;28;20332;-67
2022/09/09 04:31:23;;;;;;;4.43;2.63;;;13.00;99.90;;;;;;5072026;28;20538;-68
2022/09/09 04:33:55;;;;;;;6.68;3.53;;;13.00;99.90;;;;;;5072041;28;20189;-68
2022/09/09 04:36:25;;;;;;;7.82;3.80;;;13.00;99.90;;;;;;5072332;28;20650;-68
2022/09/09 04:38:58;;;;;;;6.82;3.08;;;12.90;99.90;;;;;;5071939;28;20217;-69
2022/09/09 04:41:27;;;;;;;4.78;3.13;;;12.90;99.90;;;;;;5071685;28;20202;-68
2022/09/09 04:43:56;;;;;;;7.13;3.42;;;12.90;99.90;;;;;;5071865;28;20187;-67
2022/09/09 04:46:25;;;;;;;5.40;2.65;;;12.90;99.90;;;;;;5072002;28;20210;-68
2022/09/09 04:48:54;;;;;;;4.13;2.80;;;12.80;99.90;;;;;;5072835;28;20233;-68
2022/09/09 04:51:31;;;;;;;6.32;2.88;;;12.80;99.90;;;;;;5071997;28;20183;-67
2022/09/09 04:53:59;;;;;;;3.47;2.50;;;12.80;99.90;;;;;;5074000;28;20198;-69
2022/09/09 04:56:28;;;;;;;3.38;2.38;;;12.80;99.90;;;;;;5072842;28;20199;-70
2022/09/09 04:58:59;;;;;;;3.63;2.10;;;12.70;99.90;;;;;;5072789;28;20226;-68
2022/09/09 05:01:38;;;;;;;3.05;2.00;;;12.70;99.90;;;;;;5071681;28;20198;-68
2022/09/09 05:04:06;;;;;;;3.50;1.98;;;12.70;99.90;;;;;;5071650;28;20191;-69
2022/09/09 05:06:37;;;;;;;3.08;2.20;;;12.70;99.90;;;;;;5071540;28;20191;-68
2022/09/09 05:09:06;;;;;;;7.55;3.47;;;12.70;99.90;;;;;;5071448;28;20210;-67
2022/09/09 05:11:36;;;;;;;4.70;2.55;;;12.70;99.90;;;;;;5073082;28;20198;-68
2022/09/09 05:14:24;;;;;;;3.97;2.45;;;12.70;99.90;;;;;;5071719;28;20199;-68
2022/09/09 05:16:53;;;;;;;3.92;2.33;;;12.70;99.90;;;;;;5071562;28;20195;-68
2022/09/09 05:19:23;;;;;;;4.95;2.30;;;12.60;99.90;;;;;;5071628;28;20196;-69
2022/09/09 05:21:55;;;;;;;10.00;6.57;;;12.60;99.90;;;;;;5080486;28;20201;-68
2022/09/09 05:24:33;;;;;;;7.00;3.55;;;12.70;99.90;;;;;;5089402;28;20559;-69
2022/09/09 05:27:02;;;;;;;15.65;9.25;;;12.70;99.90;;;;;;5090019;28;20186;-68
2022/09/09 05:29:33;;;;;;;10.90;4.95;;;12.70;99.90;;;;;;5093623;28;20222;-69
2022/09/09 05:32:04;;;;;;;14.52;9.05;;;12.70;99.90;;;;;;5095453;28;20193;-69
2022/09/09 05:34:33;;;;;;;9.82;5.35;;;12.80;99.90;;;;;;5095442;28;20190;-68
2022/09/09 05:37:04;;;;;;;6.32;2.60;;;12.80;99.90;;;;;;5078379;28;20203;-68
2022/09/09 05:39:33;;;;;;;5.30;3.20;;;12.90;99.90;;;;;;5095388;28;20194;-68
2022/09/09 05:42:04;;;;;;;15.70;9.35;;;12.90;99.90;;;;;;5096459;28;20191;-70
2022/09/09 05:44:34;;;;;;;6.88;4.10;;;12.90;99.90;;;;;;5095213;28;20558;-67
2022/09/09 05:47:03;;;;;;;6.10;2.97;;;12.90;99.90;;;;;;5095160;28;20672;-68
2022/09/09 05:49:32;;;;;;;10.48;3.80;;;12.90;99.90;;;;;;5095015;28;20229;-69
2022/09/09 05:52:03;;;;;;;12.82;7.13;;;12.90;99.90;;;;;;5095186;28;20664;-69
2022/09/09 05:54:33;;;;;;;8.27;3.55;;;12.90;99.90;;;;;;5096255;28;20182;-70
2022/09/09 05:57:02;;;;;;;8.75;4.10;;;12.90;99.90;;;;;;5095036;28;20272;-70
2022/09/09 05:59:32;;;;;;;6.95;3.55;;;12.80;99.90;;;;;;5095255;28;20199;-69
2022/09/09 06:02:01;;;;;;;7.72;3.15;;;12.80;99.90;;;;;;5094929;28;20201;-71
2022/09/09 06:04:35;;;;;;;5.55;2.90;;;12.80;99.90;;;;;;5094765;28;20183;-70
2022/09/09 06:07:05;;;;;;;7.47;3.10;;;12.80;99.90;;;;;;5094764;28;20558;-70
2022/09/09 06:09:36;;;;;;;4.85;3.13;;;12.80;99.90;;;;;;5094702;28;20225;-69
2022/09/09 06:12:05;;;;;;;5.93;2.95;;;12.90;99.90;;;;;;5095946;28;20202;-69
2022/09/09 06:14:37;;;;;;;9.18;3.63;;;12.90;99.90;;;;;;5094687;28;20226;-70
2022/09/09 06:17:10;;;;;;;9.10;4.80;;;13.00;99.90;;;;;;5095667;28;20179;-70
2022/09/09 06:19:39;;;;;;;49.25;8.38;;;13.00;99.90;;;;;;5094551;28;20555;-70
2022/09/09 06:22:12;;;;;;;13.48;3.67;;;13.10;99.90;;;;;;5094464;28;20672;-69
2022/09/09 06:24:44;;;;;;;7.97;2.92;;;13.20;99.90;;;;;;5094490;28;20194;-67
2022/09/09 06:27:14;;;;;;;14.55;7.53;;;13.30;99.90;;;;;;5094320;28;20193;-68
2022/09/09 06:29:43;;;;;;;14.50;6.95;;;13.40;99.90;;;;;;5094417;28;20723;-67
2022/09/09 06:32:11;;;;;;;12.15;5.75;;;13.50;99.90;;;;;;5095427;28;20195;-68
2022/09/09 06:34:41;;;;;;;8.13;6.57;;;13.60;99.90;;;;;;5095524;28;20671;-67
2022/09/09 06:37:11;;;;;;;8.70;5.00;;;13.70;99.90;;;;;;5094201;28;20190;-67
2022/09/09 06:39:46;;;;;;;4.22;3.30;;;13.90;99.90;;;;;;5094495;28;20552;-67
2022/09/09 06:42:15;;;;;;;20.15;11.57;;;14.00;99.90;;;;;;5093590;28;20190;-67
2022/09/09 06:44:56;;;;;;;11.52;6.88;;;14.10;99.90;;;;;;5093821;28;20205;-67
2022/09/09 06:47:43;;;;;;;7.25;3.53;;;14.20;99.90;;;;;;5095094;28;20208;-67
2022/09/09 06:50:12;;;;;;;8.20;3.90;;;14.30;99.90;;;;;;5094985;28;20226;-68
2022/09/09 06:52:40;;;;;;;11.48;6.45;;;14.40;99.90;;;;;;5094124;28;20534;-67
2022/09/09 06:55:12;;;;;;;9.55;6.70;;;14.60;99.90;;;;;;5093783;28;20649;-67
2022/09/09 06:57:42;;;;;;;9.18;3.78;;;14.70;99.90;;;;;;5093783;28;20214;-67
2022/09/09 07:00:16;;;;;;;13.68;4.30;;;14.80;99.90;;;;;;5093840;28;20179;-67
2022/09/09 07:02:45;;;;;;;16.70;4.45;;;14.80;99.90;;;;;;5093692;28;20550;-68
2022/09/09 07:05:15;;;;;;;9.70;2.95;;;14.90;99.90;;;;;;5093629;28;20199;-67
2022/09/09 07:07:46;;;;;;;8.50;3.28;;;15.10;99.90;;;;;;5093720;28;20213;-67
2022/09/09 07:10:18;;;;;;;9.65;4.07;;;15.20;99.90;;;;;;5093536;28;20570;-67
2022/09/09 07:12:51;;;;;;;6.32;3.20;;;15.50;99.90;;;;;;5093840;28;20572;-68
2022/09/09 07:15:22;;;;;;;7.32;2.75;;;15.60;99.90;;;;;;5093452;28;20196;-67
2022/09/09 07:17:53;;;;;;;10.02;2.38;;;15.80;99.90;;;;;;5093253;28;20210;-68
2022/09/09 07:20:23;;;;;;;5.55;2.17;;;15.90;99.90;;;;;;5093428;28;20178;-66
2022/09/09 07:22:56;;;;;;;3.72;1.75;;;16.20;99.90;;;;;;5093512;28;20194;-66
2022/09/09 07:25:27;;;;;;;3.38;1.90;;;16.30;99.90;;;;;;5093369;28;20186;-68
2022/09/09 07:27:57;;;;;;;3.30;1.92;;;16.40;99.90;;;;;;5094305;28;20214;-67
2022/09/09 07:30:26;;;;;;;3.10;1.75;;;16.50;99.90;;;;;;5093258;28;20214;-69
2022/09/09 07:32:58;;;;;;;3.53;1.58;;;16.70;99.90;;;;;;5093423;28;20205;-68
2022/09/09 07:35:27;;;;;;;5.72;1.63;;;16.80;99.90;;;;;;5093304;28;20186;-67
2022/09/09 07:37:57;;;;;;;2.75;1.48;;;16.90;99.90;;;;;;5093200;28;20214;-66
2022/09/09 07:40:27;;;;;;;7.00;1.70;;;17.10;99.90;;;;;;5094069;28;20672;-67
2022/09/09 07:42:56;;;;;;;6.45;1.55;;;17.40;99.90;;;;;;5093298;28;20195;-67
2022/09/09 07:45:24;;;;;;;3.60;1.10;;;17.60;99.90;;;;;;5094142;28;20190;-67
2022/09/09 07:47:53;;;;;;;2.72;0.93;;;17.70;99.90;;;;;;5093850;28;20226;-68
2022/09/09 07:50:22;;;;;;;2.42;1.40;;;17.90;99.90;;;;;;5092846;28;20577;-68
2022/09/09 07:52:53;;;;;;;4.28;1.13;;;18.00;99.90;;;;;;5091964;28;20190;-67
2022/09/09 07:55:25;;;;;;;2.55;1.08;;;18.10;99.90;;;;;;5075952;28;20209;-68
2022/09/09 07:57:56;;;;;;;3.40;1.00;;;18.20;99.90;;;;;;5093771;28;20256;-66
2022/09/09 08:00:27;;;;;;;2.50;1.00;;;18.30;99.90;;;;;;5092805;28;20629;-67
2022/09/09 08:02:58;;;;;;;1.40;0.82;;;18.60;99.90;;;;;;5092930;28;20245;-67
2022/09/09 08:05:28;;;;;;;2.92;1.10;;;18.80;99.90;;;;;;5092501;28;20183;-67
2022/09/09 08:07:56;;;;;;;2.15;0.82;;;19.00;99.90;;;;;;5092440;28;20210;-68
2022/09/09 08:10:25;;;;;;;3.25;0.80;;;19.20;99.90;;;;;;5092400;28;20585;-67
2022/09/09 08:12:57;;;;;;;3.50;1.00;;;19.30;99.50;;;;;;5092685;28;20679;-67
2022/09/09 08:15:45;;;;;;;3.88;0.98;;;19.30;99.10;;;;;;5092373;28;20186;-68
2022/09/09 08:18:15;;;;;;;3.60;0.90;;;19.40;98.40;;;;;;5075382;28;20215;-68
2022/09/09 08:20:44;;;;;;;4.10;0.90;;;19.40;98.10;;;;;;5092330;28;20194;-69
2022/09/09 08:23:13;;;;;;;2.13;0.90;;;19.40;98.40;;;;;;5092168;28;20201;-67
2022/09/09 08:25:42;;;;;;;4.30;0.90;;;19.40;97.90;;;;;;5092287;28;20195;-67
2022/09/09 08:28:12;;;;;;;2.15;0.70;;;19.40;98.30;;;;;;5092110;28;20223;-68
2022/09/09 08:30:41;;;;;;;3.03;0.70;;;19.50;98.20;;;;;;5092233;28;20202;-69
2022/09/09 08:33:10;;;;;;;3.83;0.80;;;19.70;97.40;;;;;;5093302;28;20213;-68
2022/09/09 08:35:39;;;;;;;3.63;1.20;;;19.90;97.10;;;;;;5093283;28;20182;-70
2022/09/09 08:38:08;;;;;;;1.98;0.90;;;20.00;96.90;;;;;;5093247;28;20218;-69
2022/09/09 08:40:48;;;;;;;2.67;1.05;;;20.30;96.20;;;;;;5092032;28;20193;-69
2022/09/09 08:43:22;;;;;;;2.88;0.90;;;20.50;95.90;;;;;;5092247;28;20190;-67
2022/09/09 08:45:59;;;;;;;3.17;0.88;;;20.60;94.60;;;;;;5092045;28;20190;-68
2022/09/09 08:48:44;;;;;;;4.05;1.20;;;20.40;94.50;;;;;;5092024;28;20210;-68
2022/09/09 08:51:14;;;;;;;6.55;0.95;;;20.40;94.70;;;;;;5091920;28;20226;-67
2022/09/09 08:53:49;;;;;;;4.47;0.80;;;20.30;93.90;;;;;;5091951;28;20178;-67
2022/09/09 08:56:22;;;;;;;3.00;0.90;;;20.30;94.00;;;;;;5093565;28;20181;-68
2022/09/09 08:58:57;;;;;;;4.30;0.82;;;20.30;94.00;;;;;;5081628;28;20226;-69
2022/09/09 09:01:51;;;;;;;2.80;0.85;;;20.30;94.10;;;;;;5071000;28;20672;-66
2022/09/09 09:04:41;;;;;;;4.53;1.00;;;20.40;94.00;;;;;;5073011;28;20195;-67
2022/09/09 09:07:22;;;;;;;3.78;0.77;;;20.50;93.30;;;;;;5074640;28;20561;-67
2022/09/09 09:10:01;;;;;;;2.88;1.00;;;20.60;93.90;;;;;;5058223;28;20661;-67
2022/09/09 09:12:43;;;;;;;2.80;0.90;;;20.60;93.40;;;;;;5071995;28;20221;-68
2022/09/09 09:15:21;;;;;;;4.13;0.73;;;20.60;93.20;;;;;;5072867;28;20642;-69
2022/09/09 09:17:51;;;;;;;3.03;0.77;;;20.70;93.40;;;;;;5072607;28;20223;-68
2022/09/09 09:20:29;;;;;;;3.72;0.80;;;20.90;92.70;;;;;;5072519;28;20653;-68
2022/09/09 09:23:03;;;;;;;6.35;1.40;;;21.00;92.50;;;;;;5072504;28;20199;-69
2022/09/09 09:25:37;;;;;;;7.50;0.88;;;21.00;92.20;;;;;;5072583;28;20183;-68
2022/09/09 09:28:17;;;;;;;2.70;0.80;;;21.00;92.30;;;;;;5072833;28;20215;-67
2022/09/09 09:30:54;;;;;;;3.67;0.70;;;21.00;91.20;;;;;;5074618;28;20646;-67
2022/09/09 09:33:28;;;;;;;3.50;0.93;;;21.00;91.20;;;;;;5074458;28;20210;-67
2022/09/09 09:35:59;;;;;;;4.68;0.70;;;20.90;91.50;;;;;;5074463;28;20190;-68
2022/09/09 09:38:29;;;;;;;2.95;1.02;;;20.90;91.40;;;;;;5075564;28;20708;-66
2022/09/09 09:41:30;;;;;;;3.42;1.02;;;20.80;92.10;;;;;;5074362;28;20187;-66
2022/09/09 09:44:00;;;;;;;4.28;1.10;;;20.80;91.40;;;;;;5074471;28;20194;-68
2022/09/09 09:46:32;;;;;;;3.30;0.88;;;21.00;91.10;;;;;;5074228;28;20180;-67
2022/09/09 09:49:11;;;;;;;3.03;0.90;;;21.10;90.90;;;;;;5074097;28;20562;-68
2022/09/09 09:51:41;;;;;;;3.97;1.00;;;21.30;91.10;;;;;;5074130;28;20214;-68
2022/09/09 09:54:18;;;;;;;3.85;1.00;;;21.60;90.90;;;;;;5075237;28;20650;-68
2022/09/09 09:56:52;;;;;;;3.70;1.20;;;22.10;89.90;;;;;;5074081;28;20178;-67
2022/09/09 09:59:24;;;;;;;5.45;0.90;;;22.60;86.70;;;;;;5073920;28;20183;-68
2022/09/09 10:02:24;;;;;;;4.35;1.00;;;22.70;88.50;;;;;;5074097;28;20191;-67
2022/09/09 10:05:03;;;;;;;4.22;1.70;;;22.60;87.90;;;;;;5073934;28;20183;-67
2022/09/09 10:07:33;;;;;;;4.35;1.13;;;22.90;85.40;;;;;;5073931;28;20217;-68
2022/09/09 10:10:02;;;;;;;4.20;1.40;;;23.10;85.50;;;;;;5075073;28;20191;-66
2022/09/09 10:12:46;;;;;;;2.00;0.90;;;23.00;85.40;;;;;;5074971;28;20230;-68
2022/09/09 10:15:32;;;;;;;6.18;1.00;;;22.90;86.10;;;;;;5073876;28;20661;-68
2022/09/09 10:18:21;;;;;;;3.45;1.00;;;22.80;85.10;;;;;;5074878;28;20215;-68
2022/09/09 10:21:00;;;;;;;5.57;1.40;;;22.60;85.50;;;;;;5074878;28;20195;-68
2022/09/09 10:23:43;;;;;;;2.92;0.80;;;22.60;84.80;;;;;;5074648;28;20207;-69
2022/09/09 10:26:29;;;;;;;4.38;1.75;;;22.50;84.70;;;;;;5074800;28;20188;-68
2022/09/09 10:29:13;;;;;;;4.43;1.10;;;22.60;85.00;;;;;;5074562;28;20211;-69
2022/09/09 10:31:52;;;;;;;5.07;1.52;;;22.50;84.40;;;;;;5074549;28;20550;-69
2022/09/09 10:34:41;;;;;;;3.45;1.13;;;22.40;84.50;;;;;;5074493;28;20187;-69
2022/09/09 10:37:22;;;;;;;5.13;0.93;;;22.40;85.50;;;;;;5074426;28;20183;-69
2022/09/09 10:39:59;;;;;;;2.95;0.90;;;22.50;86.30;;;;;;5074433;28;20555;-68
2022/09/09 10:42:32;;;;;;;3.33;0.80;;;22.90;85.00;;;;;;5074298;28;20211;-68
2022/09/09 10:45:14;;;;;;;5.10;1.30;;;23.30;81.20;;;;;;5074201;28;20210;-69
2022/09/09 10:48:08;;;;;;;2.00;0.77;;;23.50;79.90;;;;;;5073158;28;20290;-68
2022/09/09 10:50:56;;;;;;;2.95;0.93;;;23.70;81.30;;;;;;5074226;28;20198;-71
2022/09/09 10:53:38;;;;;;;3.78;0.88;;;23.90;80.20;;;;;;5074104;28;20242;-69
2022/09/09 10:56:10;;;;;;;3.25;0.80;;;23.90;78.10;;;;;;5074163;28;20191;-69
2022/09/09 10:58:45;;;;;;;3.08;0.98;;;23.80;78.10;;;;;;5073963;28;20219;-69
2022/09/09 11:01:19;;;;;;;2.38;0.98;;;23.60;78.10;;;;;;5073998;28;20183;-68
2022/09/09 11:03:56;;;;;;;4.03;1.10;;;23.30;78.30;;;;;;5073907;28;20198;-68
2022/09/09 11:06:33;;;;;;;3.80;1.17;;;22.90;79.00;;;;;;5074042;28;20636;-67
2022/09/09 11:09:05;;;;;;;2.15;1.08;;;22.70;80.10;;;;;;5073908;28;20231;-68
2022/09/09 11:11:40;;;;;;;3.85;1.17;;;22.50;79.60;;;;;;5073722;28;20211;-66
2022/09/09 11:14:16;;;;;;;2.75;0.93;;;22.40;79.80;;;;;;5073667;28;20217;-67
2022/09/09 11:16:51;;;;;;;3.83;0.77;;;22.20;81.80;;;;;;5073668;28;20184;-68
2022/09/09 11:19:27;;;;;;;5.28;1.10;;;22.10;82.40;;;;;;5073598;28;20692;-68
2022/09/09 11:21:59;;;;;;;4.10;1.02;;;22.00;81.70;;;;;;5073512;28;20575;-68
2022/09/09 11:24:32;;;;;;;2.92;0.98;;;21.90;81.70;;;;;;5073791;28;20214;-68
2022/09/09 11:27:09;;;;;;;3.63;0.93;;;21.80;82.50;;;;;;5073393;28;20188;-69
2022/09/09 11:30:07;;;;;;;7.32;1.00;;;21.70;82.50;;;;;;5072298;28;20183;-68
2022/09/09 11:33:14;;;;;;;3.17;0.80;;;21.70;82.10;;;;;;5073116;28;20234;-69
2022/09/09 11:35:57;;;;;;;3.08;1.10;;;21.60;82.00;;;;;;5068984;28;20598;-67
2022/09/09 11:38:29;;;;;;;3.88;1.00;;;21.60;82.20;;;;;;5073165;28;20222;-68
2022/09/09 11:41:00;;;;;;;1.65;0.80;;;21.60;82.50;;;;;;5073159;28;20188;-69
2022/09/09 11:43:32;;;;;;;3.17;1.08;;;21.50;82.80;;;;;;5073128;28;20203;-68
2022/09/09 11:46:03;;;;;;;2.95;0.80;;;21.50;82.90;;;;;;5073119;28;20192;-68
2022/09/09 11:48:37;;;;;;;2.10;0.85;;;21.70;82.90;;;;;;5072949;28;20207;-67
2022/09/09 11:51:08;;;;;;;5.00;1.08;;;22.00;83.00;;;;;;5073158;28;20191;-68
2022/09/09 11:53:54;;;;;;;2.35;0.88;;;22.50;83.90;;;;;;5072900;28;20215;-67
2022/09/09 11:56:28;;;;;;;3.00;0.82;;;23.00;84.00;;;;;;5072911;28;20195;-67
2022/09/09 11:59:00;;;;;;;3.95;0.90;;;23.50;79.70;;;;;;5072819;28;20211;-70
2022/09/09 12:01:42;;;;;;;2.15;0.70;;;24.10;77.70;;;;;;5072871;28;20187;-67
2022/09/09 12:04:28;;;;;;;1.48;0.77;;;24.40;77.10;;;;;;5072997;28;20199;-68
2022/09/09 12:07:02;;;;;;;3.30;1.23;;;24.80;74.80;;;;;;5072645;28;20202;-68
2022/09/09 12:09:46;;;;;;;4.97;1.08;;;24.90;72.30;;;;;;5072707;28;20188;-69
2022/09/09 12:12:28;;;;;;;2.10;0.80;;;24.90;72.60;;;;;;5072746;28;20194;-68
2022/09/09 12:15:04;;;;;;;2.78;0.98;;;24.90;74.50;;;;;;5072640;28;20570;-68
2022/09/09 12:17:42;;;;;;;1.73;0.80;;;24.60;73.00;;;;;;5072566;28;20695;-67
2022/09/09 12:20:15;;;;;;;3.83;1.05;;;24.30;75.30;;;;;;5072576;28;20175;-69
2022/09/09 12:23:03;;;;;;;2.90;0.90;;;23.90;76.80;;;;;;5072438;28;20210;-67
2022/09/09 12:25:46;;;;;;;3.20;0.82;;;23.40;77.70;;;;;;5072480;28;20558;-68
2022/09/09 12:28:20;;;;;;;1.88;0.90;;;23.10;78.50;;;;;;5072510;28;20207;-67
2022/09/09 12:30:57;;;;;;;3.58;1.08;;;22.90;78.20;;;;;;5072420;28;20184;-69
2022/09/09 12:33:35;;;;;;;3.13;0.90;;;22.80;79.20;;;;;;5072474;28;20202;-69
2022/09/09 12:36:06;;;;;;;3.60;0.88;;;22.60;80.30;;;;;;5072459;28;20191;-68
2022/09/09 12:38:37;;;;;;;3.80;1.20;;;22.10;81.30;;;;;;5071767;28;20696;-68
2022/09/09 12:41:20;;;;;;;12.00;1.40;;;21.40;89.80;;;;;;5072350;28;20183;-68
2022/09/09 12:43:49;;;;;;;5.30;1.40;;;20.60;91.70;;;;;;5072309;28;20191;-66
2022/09/09 12:46:27;;;;;;;6.82;1.80;;;20.00;93.10;;;;;;5072332;28;20692;-67
2022/09/09 12:48:56;;;;;;;5.60;1.20;;;19.50;95.00;;;;;;5072168;28;20219;-69
2022/09/09 12:51:29;;;;;;;7.40;1.35;;;18.80;96.50;;;;;;5072249;28;20198;-69
2022/09/09 12:53:58;;;;;;;3.80;1.10;;;18.50;97.70;;;;;;5072103;28;20708;-68
2022/09/09 12:56:32;;;;;;;5.32;2.17;;;18.30;98.40;;;;;;5072249;28;20198;-68
2022/09/09 12:59:01;;;;;;;5.70;1.73;;;18.20;99.40;;;;;;5072078;28;20215;-69
2022/09/09 13:01:32;;;;;;;3.60;0.90;;;18.40;99.90;;;;;;5072075;28;20572;-67
2022/09/09 13:04:01;;;;;;;5.13;1.63;;;18.90;99.90;;;;;;5070975;28;20188;-68
2022/09/09 13:06:31;;;;;;;4.43;1.20;;;19.30;99.90;;;;;;5072045;28;20187;-68
2022/09/09 13:09:02;;;;;;;3.85;1.17;;;19.60;99.90;;;;;;5071892;28;20700;-67
2022/09/09 13:11:38;;;;;;;2.20;0.82;;;20.00;99.90;;;;;;5072081;28;20645;-67
2022/09/09 13:14:19;;;;;;;3.78;1.02;;;20.10;99.90;;;;;;5072109;28;20214;-69
2022/09/09 13:16:57;;;;;;;2.65;0.90;;;20.40;99.90;;;;;;5072147;28;20630;-67
2022/09/09 13:19:28;;;;;;;2.45;0.60;;;20.60;99.90;;;;;;5072176;28;20187;-68
2022/09/09 13:21:57;;;;;;;1.77;0.60;;;20.70;99.90;;;;;;5071946;28;20681;-67